sensor_id;sensor_type;location;lat;lon;timestamp;temperature;humidity
80296;DHT22;74188;42.148;24.762;2023-11-19T00:00:46;8.90;50.70
80296;DHT22;74188;42.148;24.762;2023-11-19T00:03:11;8.90;50.60
80296;DHT22;74188;42.148;24.762;2023-11-19T00:05:38;8.90;50.50
80296;DHT22;74188;42.148;24.762;2023-11-19T00:08:04;8.80;50.70
80296;DHT22;74188;42.148;24.762;2023-11-19T00:10:31;8.80;50.90
80296;DHT22;74188;42.148;24.762;2023-11-19T00:12:56;8.80;50.90
80296;DHT22;74188;42.148;24.762;2023-11-19T00:15:22;8.80;51.20
80296;DHT22;74188;42.148;24.762;2023-11-19T00:17:49;8.70;51.30
80296;DHT22;74188;42.148;24.762;2023-11-19T00:20:15;8.70;51.50
80296;DHT22;74188;42.148;24.762;2023-11-19T00:22:41;8.60;51.80
80296;DHT22;74188;42.148;24.762;2023-11-19T00:25:08;8.70;51.80
80296;DHT22;74188;42.148;24.762;2023-11-19T00:27:34;8.80;51.60
80296;DHT22;74188;42.148;24.762;2023-11-19T00:30:01;8.90;51.40
80296;DHT22;74188;42.148;24.762;2023-11-19T00:32:30;8.90;51.30
80296;DHT22;74188;42.148;24.762;2023-11-19T00:34:56;8.80;51.20
80296;DHT22;74188;42.148;24.762;2023-11-19T00:37:21;8.90;51.30
80296;DHT22;74188;42.148;24.762;2023-11-19T00:39:47;8.90;51.30
80296;DHT22;74188;42.148;24.762;2023-11-19T00:42:12;8.90;51.30
80296;DHT22;74188;42.148;24.762;2023-11-19T00:44:39;8.90;51.10
80296;DHT22;74188;42.148;24.762;2023-11-19T00:47:04;8.90;50.90
80296;DHT22;74188;42.148;24.762;2023-11-19T00:49:30;9.00;50.70
80296;DHT22;74188;42.148;24.762;2023-11-19T00:51:58;9.00;50.70
80296;DHT22;74188;42.148;24.762;2023-11-19T00:54:24;9.00;50.70
80296;DHT22;74188;42.148;24.762;2023-11-19T00:56:51;9.00;50.70
80296;DHT22;74188;42.148;24.762;2023-11-19T00:59:17;8.90;50.60
80296;DHT22;74188;42.148;24.762;2023-11-19T01:01:43;8.90;51.20
80296;DHT22;74188;42.148;24.762;2023-11-19T01:04:08;8.80;51.30
80296;DHT22;74188;42.148;24.762;2023-11-19T01:06:34;8.80;51.40
80296;DHT22;74188;42.148;24.762;2023-11-19T01:08:59;8.80;51.60
80296;DHT22;74188;42.148;24.762;2023-11-19T01:11:25;8.70;51.90
80296;DHT22;74188;42.148;24.762;2023-11-19T01:13:51;8.80;51.90
80296;DHT22;74188;42.148;24.762;2023-11-19T01:16:17;8.70;52.20
80296;DHT22;74188;42.148;24.762;2023-11-19T01:18:44;8.70;52.30
80296;DHT22;74188;42.148;24.762;2023-11-19T01:21:10;8.80;52.20
80296;DHT22;74188;42.148;24.762;2023-11-19T01:23:35;8.70;52.40
80296;DHT22;74188;42.148;24.762;2023-11-19T01:26:02;8.70;52.30
80296;DHT22;74188;42.148;24.762;2023-11-19T01:28:28;8.60;52.40
80296;DHT22;74188;42.148;24.762;2023-11-19T01:30:53;8.70;52.20
80296;DHT22;74188;42.148;24.762;2023-11-19T01:33:19;8.70;52.30
80296;DHT22;74188;42.148;24.762;2023-11-19T01:35:44;8.80;52.20
80296;DHT22;74188;42.148;24.762;2023-11-19T01:38:10;8.70;52.40
80296;DHT22;74188;42.148;24.762;2023-11-19T01:40:36;8.70;52.50
80296;DHT22;74188;42.148;24.762;2023-11-19T01:43:02;8.60;52.70
80296;DHT22;74188;42.148;24.762;2023-11-19T01:45:28;8.60;52.90
80296;DHT22;74188;42.148;24.762;2023-11-19T01:47:54;8.60;53.30
80296;DHT22;74188;42.148;24.762;2023-11-19T01:50:21;8.60;52.70
80296;DHT22;74188;42.148;24.762;2023-11-19T01:52:46;8.60;52.80
80296;DHT22;74188;42.148;24.762;2023-11-19T01:55:12;8.50;53.20
80296;DHT22;74188;42.148;24.762;2023-11-19T01:57:38;8.50;53.30
80296;DHT22;74188;42.148;24.762;2023-11-19T02:00:06;8.50;53.30
80296;DHT22;74188;42.148;24.762;2023-11-19T02:02:32;8.50;53.20
80296;DHT22;74188;42.148;24.762;2023-11-19T02:04:57;8.50;53.60
80296;DHT22;74188;42.148;24.762;2023-11-19T02:07:23;8.50;53.50
80296;DHT22;74188;42.148;24.762;2023-11-19T02:09:49;8.50;53.40
80296;DHT22;74188;42.148;24.762;2023-11-19T02:12:15;8.50;53.10
80296;DHT22;74188;42.148;24.762;2023-11-19T02:14:40;8.50;53.30
80296;DHT22;74188;42.148;24.762;2023-11-19T02:17:06;8.50;53.30
80296;DHT22;74188;42.148;24.762;2023-11-19T02:19:31;8.60;53.30
80296;DHT22;74188;42.148;24.762;2023-11-19T02:21:57;8.50;53.00
80296;DHT22;74188;42.148;24.762;2023-11-19T02:24:22;8.60;53.00
80296;DHT22;74188;42.148;24.762;2023-11-19T02:29:49;8.60;53.10
80296;DHT22;74188;42.148;24.762;2023-11-19T02:32:15;8.50;53.10
80296;DHT22;74188;42.148;24.762;2023-11-19T02:34:41;8.40;53.20
80296;DHT22;74188;42.148;24.762;2023-11-19T02:37:06;8.40;53.30
80296;DHT22;74188;42.148;24.762;2023-11-19T02:39:32;8.40;53.30
80296;DHT22;74188;42.148;24.762;2023-11-19T02:41:57;8.40;53.20
80296;DHT22;74188;42.148;24.762;2023-11-19T02:44:23;8.40;53.00
80296;DHT22;74188;42.148;24.762;2023-11-19T02:46:48;8.40;52.80
80296;DHT22;74188;42.148;24.762;2023-11-19T02:49:14;8.50;52.50
80296;DHT22;74188;42.148;24.762;2023-11-19T02:51:40;8.50;52.40
80296;DHT22;74188;42.148;24.762;2023-11-19T02:54:06;8.50;52.40
80296;DHT22;74188;42.148;24.762;2023-11-19T02:56:31;8.50;52.40
80296;DHT22;74188;42.148;24.762;2023-11-19T02:59:01;8.50;52.40
80296;DHT22;74188;42.148;24.762;2023-11-19T03:01:37;8.50;52.50
80296;DHT22;74188;42.148;24.762;2023-11-19T03:04:02;8.50;52.60
80296;DHT22;74188;42.148;24.762;2023-11-19T03:06:29;8.50;52.40
80296;DHT22;74188;42.148;24.762;2023-11-19T03:08:55;8.50;52.00
80296;DHT22;74188;42.148;24.762;2023-11-19T03:11:20;8.50;52.00
80296;DHT22;74188;42.148;24.762;2023-11-19T03:13:46;8.50;52.20
80296;DHT22;74188;42.148;24.762;2023-11-19T03:16:12;8.50;52.10
80296;DHT22;74188;42.148;24.762;2023-11-19T03:18:38;8.50;51.60
80296;DHT22;74188;42.148;24.762;2023-11-19T03:21:05;8.60;51.80
80296;DHT22;74188;42.148;24.762;2023-11-19T03:23:31;8.60;51.90
80296;DHT22;74188;42.148;24.762;2023-11-19T03:25:56;8.60;51.90
80296;DHT22;74188;42.148;24.762;2023-11-19T03:28:22;8.60;51.80
80296;DHT22;74188;42.148;24.762;2023-11-19T03:30:47;8.60;51.90
80296;DHT22;74188;42.148;24.762;2023-11-19T03:33:13;8.60;52.00
80296;DHT22;74188;42.148;24.762;2023-11-19T03:35:38;8.60;52.10
80296;DHT22;74188;42.148;24.762;2023-11-19T03:38:06;8.50;52.40
80296;DHT22;74188;42.148;24.762;2023-11-19T03:40:31;8.40;52.70
80296;DHT22;74188;42.148;24.762;2023-11-19T03:42:57;8.40;53.20
80296;DHT22;74188;42.148;24.762;2023-11-19T03:45:25;8.30;53.40
80296;DHT22;74188;42.148;24.762;2023-11-19T03:47:51;8.30;53.80
80296;DHT22;74188;42.148;24.762;2023-11-19T03:50:17;8.30;54.20
80296;DHT22;74188;42.148;24.762;2023-11-19T03:52:45;8.10;54.50
80296;DHT22;74188;42.148;24.762;2023-11-19T03:55:11;8.10;54.80
80296;DHT22;74188;42.148;24.762;2023-11-19T03:57:38;8.00;54.60
80296;DHT22;74188;42.148;24.762;2023-11-19T04:00:04;8.00;54.60
80296;DHT22;74188;42.148;24.762;2023-11-19T04:02:36;7.90;54.60
80296;DHT22;74188;42.148;24.762;2023-11-19T04:05:02;8.00;54.60
80296;DHT22;74188;42.148;24.762;2023-11-19T04:07:29;8.00;54.10
80296;DHT22;74188;42.148;24.762;2023-11-19T04:09:54;8.00;54.10
80296;DHT22;74188;42.148;24.762;2023-11-19T04:12:20;8.00;53.80
80296;DHT22;74188;42.148;24.762;2023-11-19T04:14:47;8.00;53.50
80296;DHT22;74188;42.148;24.762;2023-11-19T04:17:12;8.00;53.30
80296;DHT22;74188;42.148;24.762;2023-11-19T04:19:38;8.00;53.40
80296;DHT22;74188;42.148;24.762;2023-11-19T04:22:09;8.10;53.30
80296;DHT22;74188;42.148;24.762;2023-11-19T04:24:35;8.10;53.00
80296;DHT22;74188;42.148;24.762;2023-11-19T04:27:00;8.10;52.70
80296;DHT22;74188;42.148;24.762;2023-11-19T04:29:26;8.10;52.70
80296;DHT22;74188;42.148;24.762;2023-11-19T04:31:51;8.20;52.30
80296;DHT22;74188;42.148;24.762;2023-11-19T04:34:17;8.20;52.20
80296;DHT22;74188;42.148;24.762;2023-11-19T04:36:42;8.20;52.00
80296;DHT22;74188;42.148;24.762;2023-11-19T04:39:09;8.20;52.10
80296;DHT22;74188;42.148;24.762;2023-11-19T04:41:35;8.20;52.10
80296;DHT22;74188;42.148;24.762;2023-11-19T04:44:00;8.30;52.10
80296;DHT22;74188;42.148;24.762;2023-11-19T04:46:26;8.30;52.10
80296;DHT22;74188;42.148;24.762;2023-11-19T04:48:52;8.30;52.30
80296;DHT22;74188;42.148;24.762;2023-11-19T04:51:17;8.20;52.60
80296;DHT22;74188;42.148;24.762;2023-11-19T04:53:43;8.10;53.00
80296;DHT22;74188;42.148;24.762;2023-11-19T04:56:08;8.10;53.00
80296;DHT22;74188;42.148;24.762;2023-11-19T04:58:34;8.10;53.20
80296;DHT22;74188;42.148;24.762;2023-11-19T05:01:01;8.10;53.50
80296;DHT22;74188;42.148;24.762;2023-11-19T05:03:27;8.00;53.70
80296;DHT22;74188;42.148;24.762;2023-11-19T05:05:52;7.90;54.00
80296;DHT22;74188;42.148;24.762;2023-11-19T05:08:18;7.80;54.20
80296;DHT22;74188;42.148;24.762;2023-11-19T05:10:44;7.80;54.10
80296;DHT22;74188;42.148;24.762;2023-11-19T05:13:09;7.80;54.10
80296;DHT22;74188;42.148;24.762;2023-11-19T05:15:35;7.80;54.10
80296;DHT22;74188;42.148;24.762;2023-11-19T05:18:01;7.80;55.00
80296;DHT22;74188;42.148;24.762;2023-11-19T05:20:26;7.80;53.90
80296;DHT22;74188;42.148;24.762;2023-11-19T05:22:52;7.80;53.90
80296;DHT22;74188;42.148;24.762;2023-11-19T05:25:18;7.70;53.80
80296;DHT22;74188;42.148;24.762;2023-11-19T05:27:45;7.80;53.80
80296;DHT22;74188;42.148;24.762;2023-11-19T05:30:11;7.80;53.60
80296;DHT22;74188;42.148;24.762;2023-11-19T05:32:37;7.80;53.80
80296;DHT22;74188;42.148;24.762;2023-11-19T05:35:02;7.80;53.60
80296;DHT22;74188;42.148;24.762;2023-11-19T05:37:28;7.80;53.50
80296;DHT22;74188;42.148;24.762;2023-11-19T05:39:53;7.80;53.50
80296;DHT22;74188;42.148;24.762;2023-11-19T05:42:19;7.80;53.70
80296;DHT22;74188;42.148;24.762;2023-11-19T05:44:44;7.70;53.90
80296;DHT22;74188;42.148;24.762;2023-11-19T05:47:10;7.70;53.90
80296;DHT22;74188;42.148;24.762;2023-11-19T05:49:35;7.80;53.70
80296;DHT22;74188;42.148;24.762;2023-11-19T05:52:01;7.80;53.80
80296;DHT22;74188;42.148;24.762;2023-11-19T05:54:28;7.70;53.70
80296;DHT22;74188;42.148;24.762;2023-11-19T05:56:54;7.70;53.60
80296;DHT22;74188;42.148;24.762;2023-11-19T05:59:20;7.70;53.60
80296;DHT22;74188;42.148;24.762;2023-11-19T06:01:45;7.80;53.30
80296;DHT22;74188;42.148;24.762;2023-11-19T06:04:11;7.80;53.30
80296;DHT22;74188;42.148;24.762;2023-11-19T06:06:37;7.80;53.00
80296;DHT22;74188;42.148;24.762;2023-11-19T06:09:03;7.90;52.90
80296;DHT22;74188;42.148;24.762;2023-11-19T06:11:29;7.90;52.90
80296;DHT22;74188;42.148;24.762;2023-11-19T06:13:55;8.10;52.50
80296;DHT22;74188;42.148;24.762;2023-11-19T06:16:21;8.10;52.50
80296;DHT22;74188;42.148;24.762;2023-11-19T06:18:47;8.30;52.20
80296;DHT22;74188;42.148;24.762;2023-11-19T06:21:12;8.40;51.80
80296;DHT22;74188;42.148;24.762;2023-11-19T06:23:38;8.50;52.60
80296;DHT22;74188;42.148;24.762;2023-11-19T06:26:03;8.60;51.00
80296;DHT22;74188;42.148;24.762;2023-11-19T06:28:30;8.60;50.50
80296;DHT22;74188;42.148;24.762;2023-11-19T06:30:56;8.70;50.40
80296;DHT22;74188;42.148;24.762;2023-11-19T06:33:23;8.70;50.60
80296;DHT22;74188;42.148;24.762;2023-11-19T06:35:49;8.70;50.60
80296;DHT22;74188;42.148;24.762;2023-11-19T06:38:14;8.80;50.00
80296;DHT22;74188;42.148;24.762;2023-11-19T06:40:40;8.90;50.10
80296;DHT22;74188;42.148;24.762;2023-11-19T06:43:06;8.90;49.80
80296;DHT22;74188;42.148;24.762;2023-11-19T06:45:33;9.00;49.60
80296;DHT22;74188;42.148;24.762;2023-11-19T06:48:02;9.10;49.40
80296;DHT22;74188;42.148;24.762;2023-11-19T06:50:28;9.10;49.00
80296;DHT22;74188;42.148;24.762;2023-11-19T06:52:54;9.30;48.70
80296;DHT22;74188;42.148;24.762;2023-11-19T06:55:20;9.30;48.60
80296;DHT22;74188;42.148;24.762;2023-11-19T06:57:45;9.30;48.10
80296;DHT22;74188;42.148;24.762;2023-11-19T07:00:11;9.30;48.20
80296;DHT22;74188;42.148;24.762;2023-11-19T07:02:37;9.20;48.40
80296;DHT22;74188;42.148;24.762;2023-11-19T07:05:02;9.20;48.70
80296;DHT22;74188;42.148;24.762;2023-11-19T07:07:30;9.30;48.70
80296;DHT22;74188;42.148;24.762;2023-11-19T07:09:55;9.30;48.70
80296;DHT22;74188;42.148;24.762;2023-11-19T07:12:21;9.40;48.50
80296;DHT22;74188;42.148;24.762;2023-11-19T07:14:47;9.40;48.50
80296;DHT22;74188;42.148;24.762;2023-11-19T07:17:12;9.70;48.40
80296;DHT22;74188;42.148;24.762;2023-11-19T07:19:38;10.00;46.90
80296;DHT22;74188;42.148;24.762;2023-11-19T07:22:04;10.20;46.60
80296;DHT22;74188;42.148;24.762;2023-11-19T07:25:46;10.50;44.70
80296;DHT22;74188;42.148;24.762;2023-11-19T07:28:13;10.60;44.50
80296;DHT22;74188;42.148;24.762;2023-11-19T07:30:38;10.80;44.30
80296;DHT22;74188;42.148;24.762;2023-11-19T07:33:04;11.00;44.20
80296;DHT22;74188;42.148;24.762;2023-11-19T07:35:31;11.40;42.80
80296;DHT22;74188;42.148;24.762;2023-11-19T07:37:57;11.80;42.30
80296;DHT22;74188;42.148;24.762;2023-11-19T07:40:23;12.40;39.90
80296;DHT22;74188;42.148;24.762;2023-11-19T07:42:49;13.00;38.30
80296;DHT22;74188;42.148;24.762;2023-11-19T07:45:15;13.70;36.40
80296;DHT22;74188;42.148;24.762;2023-11-19T07:47:42;14.30;35.00
80296;DHT22;74188;42.148;24.762;2023-11-19T07:50:10;14.80;33.90
80296;DHT22;74188;42.148;24.762;2023-11-19T07:52:36;15.40;32.50
80296;DHT22;74188;42.148;24.762;2023-11-19T07:55:02;16.10;30.70
80296;DHT22;74188;42.148;24.762;2023-11-19T07:57:28;16.20;30.00
80296;DHT22;74188;42.148;24.762;2023-11-19T07:59:56;16.30;29.90
80296;DHT22;74188;42.148;24.762;2023-11-19T08:02:22;17.00;29.20
80296;DHT22;74188;42.148;24.762;2023-11-19T08:04:49;17.60;28.30
80296;DHT22;74188;42.148;24.762;2023-11-19T08:07:17;17.80;27.60
80296;DHT22;74188;42.148;24.762;2023-11-19T08:09:43;17.90;27.60
80296;DHT22;74188;42.148;24.762;2023-11-19T08:12:08;17.80;27.10
80296;DHT22;74188;42.148;24.762;2023-11-19T08:14:35;17.80;27.30
80296;DHT22;74188;42.148;24.762;2023-11-19T08:17:02;18.30;27.10
80296;DHT22;74188;42.148;24.762;2023-11-19T08:19:28;18.90;26.50
80296;DHT22;74188;42.148;24.762;2023-11-19T08:21:54;19.00;25.50
80296;DHT22;74188;42.148;24.762;2023-11-19T08:24:19;18.90;25.80
80296;DHT22;74188;42.148;24.762;2023-11-19T08:26:45;19.10;25.50
80296;DHT22;74188;42.148;24.762;2023-11-19T08:29:11;19.50;25.30
80296;DHT22;74188;42.148;24.762;2023-11-19T08:31:36;19.90;24.80
80296;DHT22;74188;42.148;24.762;2023-11-19T08:34:02;20.60;23.90
80296;DHT22;74188;42.148;24.762;2023-11-19T08:36:28;20.90;23.10
80296;DHT22;74188;42.148;24.762;2023-11-19T08:38:54;20.70;23.30
80296;DHT22;74188;42.148;24.762;2023-11-19T08:41:20;20.20;23.80
80296;DHT22;74188;42.148;24.762;2023-11-19T08:43:47;19.90;24.10
80296;DHT22;74188;42.148;24.762;2023-11-19T08:46:13;19.30;24.70
80296;DHT22;74188;42.148;24.762;2023-11-19T08:48:39;19.80;24.70
80296;DHT22;74188;42.148;24.762;2023-11-19T08:51:05;20.40;24.00
80296;DHT22;74188;42.148;24.762;2023-11-19T08:53:31;20.20;23.80
80296;DHT22;74188;42.148;24.762;2023-11-19T08:55:57;20.30;23.70
80296;DHT22;74188;42.148;24.762;2023-11-19T08:58:23;20.70;23.20
80296;DHT22;74188;42.148;24.762;2023-11-19T09:00:48;20.60;23.40
80296;DHT22;74188;42.148;24.762;2023-11-19T09:03:14;20.40;23.20
80296;DHT22;74188;42.148;24.762;2023-11-19T09:05:39;19.80;23.80
80296;DHT22;74188;42.148;24.762;2023-11-19T09:08:06;19.50;24.50
80296;DHT22;74188;42.148;24.762;2023-11-19T09:10:32;19.70;24.20
80296;DHT22;74188;42.148;24.762;2023-11-19T09:12:57;20.00;23.70
80296;DHT22;74188;42.148;24.762;2023-11-19T09:15:23;20.20;23.20
80296;DHT22;74188;42.148;24.762;2023-11-19T09:17:49;19.70;23.70
80296;DHT22;74188;42.148;24.762;2023-11-19T09:20:15;19.50;24.20
80296;DHT22;74188;42.148;24.762;2023-11-19T09:22:41;19.40;24.00
80296;DHT22;74188;42.148;24.762;2023-11-19T09:25:07;18.90;24.80
80296;DHT22;74188;42.148;24.762;2023-11-19T09:27:33;19.50;24.70
80296;DHT22;74188;42.148;24.762;2023-11-19T09:29:59;20.80;23.10
80296;DHT22;74188;42.148;24.762;2023-11-19T09:32:25;21.70;21.60
80296;DHT22;74188;42.148;24.762;2023-11-19T09:34:51;21.40;21.60
80296;DHT22;74188;42.148;24.762;2023-11-19T09:37:16;21.60;21.70
80296;DHT22;74188;42.148;24.762;2023-11-19T09:39:42;21.80;21.20
80296;DHT22;74188;42.148;24.762;2023-11-19T09:42:11;21.50;21.50
80296;DHT22;74188;42.148;24.762;2023-11-19T09:44:42;21.60;21.40
80296;DHT22;74188;42.148;24.762;2023-11-19T09:47:08;21.70;21.50
80296;DHT22;74188;42.148;24.762;2023-11-19T09:49:35;21.60;21.10
80296;DHT22;74188;42.148;24.762;2023-11-19T09:52:02;22.00;21.20
80296;DHT22;74188;42.148;24.762;2023-11-19T09:54:28;22.70;20.10
80296;DHT22;74188;42.148;24.762;2023-11-19T09:56:55;23.00;20.00
80296;DHT22;74188;42.148;24.762;2023-11-19T09:59:26;23.20;19.60
80296;DHT22;74188;42.148;24.762;2023-11-19T10:01:52;23.40;19.40
80296;DHT22;74188;42.148;24.762;2023-11-19T10:04:19;23.90;19.00
80296;DHT22;74188;42.148;24.762;2023-11-19T10:06:45;24.80;18.20
80296;DHT22;74188;42.148;24.762;2023-11-19T10:09:12;24.30;17.70
80296;DHT22;74188;42.148;24.762;2023-11-19T10:11:38;22.50;19.70
80296;DHT22;74188;42.148;24.762;2023-11-19T10:14:04;22.20;21.00
80296;DHT22;74188;42.148;24.762;2023-11-19T10:16:30;22.70;19.90
80296;DHT22;74188;42.148;24.762;2023-11-19T10:18:59;22.50;20.10
80296;DHT22;74188;42.148;24.762;2023-11-19T10:21:24;22.10;20.50
80296;DHT22;74188;42.148;24.762;2023-11-19T10:23:52;22.00;20.70
80296;DHT22;74188;42.148;24.762;2023-11-19T10:26:18;21.60;21.10
80296;DHT22;74188;42.148;24.762;2023-11-19T10:28:46;21.50;21.40
80296;DHT22;74188;42.148;24.762;2023-11-19T10:31:16;21.60;21.20
80296;DHT22;74188;42.148;24.762;2023-11-19T10:33:43;22.00;20.60
80296;DHT22;74188;42.148;24.762;2023-11-19T10:36:11;21.80;20.80
80296;DHT22;74188;42.148;24.762;2023-11-19T10:38:38;22.20;21.10
80296;DHT22;74188;42.148;24.762;2023-11-19T10:41:04;23.00;20.00
80296;DHT22;74188;42.148;24.762;2023-11-19T10:43:31;22.60;19.60
80296;DHT22;74188;42.148;24.762;2023-11-19T10:46:10;21.70;20.70
80296;DHT22;74188;42.148;24.762;2023-11-19T10:48:36;21.40;21.40
80296;DHT22;74188;42.148;24.762;2023-11-19T10:51:05;22.10;21.50
80296;DHT22;74188;42.148;24.762;2023-11-19T10:53:35;22.00;20.40
80296;DHT22;74188;42.148;24.762;2023-11-19T10:56:02;21.50;21.10
80296;DHT22;74188;42.148;24.762;2023-11-19T10:58:32;21.60;21.20
80296;DHT22;74188;42.148;24.762;2023-11-19T11:01:01;22.00;20.80
80296;DHT22;74188;42.148;24.762;2023-11-19T11:03:34;22.10;20.40
80296;DHT22;74188;42.148;24.762;2023-11-19T11:06:03;22.10;20.20
80296;DHT22;74188;42.148;24.762;2023-11-19T11:08:30;21.90;20.60
80296;DHT22;74188;42.148;24.762;2023-11-19T11:10:56;21.30;20.60
80296;DHT22;74188;42.148;24.762;2023-11-19T11:13:24;21.30;21.40
80296;DHT22;74188;42.148;24.762;2023-11-19T11:15:51;22.30;20.50
80296;DHT22;74188;42.148;24.762;2023-11-19T11:18:17;22.70;19.90
80296;DHT22;74188;42.148;24.762;2023-11-19T11:20:47;23.20;19.40
80296;DHT22;74188;42.148;24.762;2023-11-19T11:29:01;26.00;16.50
80296;DHT22;74188;42.148;24.762;2023-11-19T11:31:44;26.80;16.20
80296;DHT22;74188;42.148;24.762;2023-11-19T11:39:29;26.90;15.50
80296;DHT22;74188;42.148;24.762;2023-11-19T11:47:25;27.10;15.60
80296;DHT22;74188;42.148;24.762;2023-11-19T11:49:52;27.40;15.40
80296;DHT22;74188;42.148;24.762;2023-11-19T11:52:17;27.90;15.00
80296;DHT22;74188;42.148;24.762;2023-11-19T11:54:44;27.60;15.60
80296;DHT22;74188;42.148;24.762;2023-11-19T11:57:14;27.40;15.10
80296;DHT22;74188;42.148;24.762;2023-11-19T11:59:49;26.90;15.40
80296;DHT22;74188;42.148;24.762;2023-11-19T12:02:18;26.70;15.90
80296;DHT22;74188;42.148;24.762;2023-11-19T12:04:49;26.60;15.60
80296;DHT22;74188;42.148;24.762;2023-11-19T12:07:23;26.60;15.80
80296;DHT22;74188;42.148;24.762;2023-11-19T12:10:08;26.40;15.50
80296;DHT22;74188;42.148;24.762;2023-11-19T12:12:34;25.20;16.60
80296;DHT22;74188;42.148;24.762;2023-11-19T12:15:03;24.70;17.00
80296;DHT22;74188;42.148;24.762;2023-11-19T12:20:04;24.70;17.20
80296;DHT22;74188;42.148;24.762;2023-11-19T12:22:31;24.50;17.30
80296;DHT22;74188;42.148;24.762;2023-11-19T12:24:57;24.30;17.50
80296;DHT22;74188;42.148;24.762;2023-11-19T12:27:23;24.30;17.80
80296;DHT22;74188;42.148;24.762;2023-11-19T12:29:49;24.30;17.80
80296;DHT22;74188;42.148;24.762;2023-11-19T12:32:15;23.80;18.30
80296;DHT22;74188;42.148;24.762;2023-11-19T12:34:41;24.00;18.30
80296;DHT22;74188;42.148;24.762;2023-11-19T12:37:07;24.10;18.10
80296;DHT22;74188;42.148;24.762;2023-11-19T12:39:35;23.40;18.90
80296;DHT22;74188;42.148;24.762;2023-11-19T12:42:01;23.80;18.50
80296;DHT22;74188;42.148;24.762;2023-11-19T12:44:27;24.10;18.10
80296;DHT22;74188;42.148;24.762;2023-11-19T12:47:06;24.10;18.30
80296;DHT22;74188;42.148;24.762;2023-11-19T12:49:37;24.30;18.10
80296;DHT22;74188;42.148;24.762;2023-11-19T12:52:12;24.00;18.40
80296;DHT22;74188;42.148;24.762;2023-11-19T12:54:38;23.70;18.50
80296;DHT22;74188;42.148;24.762;2023-11-19T12:57:05;23.70;18.50
80296;DHT22;74188;42.148;24.762;2023-11-19T12:59:31;24.30;18.00
80296;DHT22;74188;42.148;24.762;2023-11-19T13:02:00;25.00;17.50
80296;DHT22;74188;42.148;24.762;2023-11-19T13:04:30;25.50;17.00
80296;DHT22;74188;42.148;24.762;2023-11-19T13:07:01;25.20;17.00
80296;DHT22;74188;42.148;24.762;2023-11-19T13:09:30;24.90;17.20
80296;DHT22;74188;42.148;24.762;2023-11-19T13:11:56;24.20;18.00
80296;DHT22;74188;42.148;24.762;2023-11-19T13:14:23;23.60;18.50
80296;DHT22;74188;42.148;24.762;2023-11-19T13:16:49;23.40;18.90
80296;DHT22;74188;42.148;24.762;2023-11-19T13:19:15;23.20;20.30
80296;DHT22;74188;42.148;24.762;2023-11-19T13:21:58;22.90;19.40
80296;DHT22;74188;42.148;24.762;2023-11-19T13:24:27;22.00;20.50
80296;DHT22;74188;42.148;24.762;2023-11-19T13:26:52;21.60;21.00
80296;DHT22;74188;42.148;24.762;2023-11-19T13:29:21;21.30;21.30
80296;DHT22;74188;42.148;24.762;2023-11-19T13:31:46;21.50;21.30
80296;DHT22;74188;42.148;24.762;2023-11-19T13:34:12;21.70;20.80
80296;DHT22;74188;42.148;24.762;2023-11-19T13:36:38;21.40;21.20
80296;DHT22;74188;42.148;24.762;2023-11-19T13:39:04;21.30;21.30
80296;DHT22;74188;42.148;24.762;2023-11-19T13:41:30;21.20;21.40
80296;DHT22;74188;42.148;24.762;2023-11-19T13:43:56;21.20;21.40
80296;DHT22;74188;42.148;24.762;2023-11-19T13:46:23;21.20;21.60
80296;DHT22;74188;42.148;24.762;2023-11-19T13:48:49;20.90;21.80
80296;DHT22;74188;42.148;24.762;2023-11-19T13:51:15;20.70;22.20
80296;DHT22;74188;42.148;24.762;2023-11-19T13:53:41;20.30;22.50
80296;DHT22;74188;42.148;24.762;2023-11-19T13:56:07;19.90;24.00
80296;DHT22;74188;42.148;24.762;2023-11-19T13:58:33;19.70;23.50
80296;DHT22;74188;42.148;24.762;2023-11-19T14:00:59;19.50;23.70
80296;DHT22;74188;42.148;24.762;2023-11-19T14:03:24;19.40;23.80
80296;DHT22;74188;42.148;24.762;2023-11-19T14:05:50;19.20;24.30
80296;DHT22;74188;42.148;24.762;2023-11-19T14:08:17;18.50;25.10
80296;DHT22;74188;42.148;24.762;2023-11-19T14:10:43;17.60;26.40
80296;DHT22;74188;42.148;24.762;2023-11-19T14:13:09;16.90;27.60
80296;DHT22;74188;42.148;24.762;2023-11-19T14:15:34;16.30;28.60
80296;DHT22;74188;42.148;24.762;2023-11-19T14:18:01;15.70;29.40
80296;DHT22;74188;42.148;24.762;2023-11-19T14:20:28;15.10;30.30
80296;DHT22;74188;42.148;24.762;2023-11-19T14:22:54;14.60;31.50
80296;DHT22;74188;42.148;24.762;2023-11-19T14:25:19;14.40;32.10
80296;DHT22;74188;42.148;24.762;2023-11-19T14:27:51;14.10;32.80
80296;DHT22;74188;42.148;24.762;2023-11-19T14:30:16;13.80;33.40
80296;DHT22;74188;42.148;24.762;2023-11-19T14:32:43;13.70;34.10
80296;DHT22;74188;42.148;24.762;2023-11-19T14:35:13;13.50;34.70
80296;DHT22;74188;42.148;24.762;2023-11-19T14:37:39;13.30;35.00
80296;DHT22;74188;42.148;24.762;2023-11-19T14:40:05;13.10;35.20
80296;DHT22;74188;42.148;24.762;2023-11-19T14:42:32;12.80;35.60
80296;DHT22;74188;42.148;24.762;2023-11-19T14:44:58;12.80;36.10
80296;DHT22;74188;42.148;24.762;2023-11-19T14:47:26;12.60;36.40
80296;DHT22;74188;42.148;24.762;2023-11-19T14:49:52;12.40;36.90
80296;DHT22;74188;42.148;24.762;2023-11-19T14:52:18;12.30;37.30
80296;DHT22;74188;42.148;24.762;2023-11-19T14:54:47;12.30;37.10
80296;DHT22;74188;42.148;24.762;2023-11-19T14:57:20;12.20;37.40
80296;DHT22;74188;42.148;24.762;2023-11-19T14:59:56;12.20;37.50
80296;DHT22;74188;42.148;24.762;2023-11-19T15:02:21;12.10;37.40
80296;DHT22;74188;42.148;24.762;2023-11-19T15:04:47;12.20;37.40
80296;DHT22;74188;42.148;24.762;2023-11-19T15:07:13;12.10;37.20
80296;DHT22;74188;42.148;24.762;2023-11-19T15:09:38;12.00;37.40
80296;DHT22;74188;42.148;24.762;2023-11-19T15:12:07;11.90;37.80
80296;DHT22;74188;42.148;24.762;2023-11-19T15:14:43;11.80;38.10
80296;DHT22;74188;42.148;24.762;2023-11-19T15:17:09;11.70;38.40
80296;DHT22;74188;42.148;24.762;2023-11-19T15:19:34;11.50;39.00
80296;DHT22;74188;42.148;24.762;2023-11-19T15:22:00;11.40;39.20
80296;DHT22;74188;42.148;24.762;2023-11-19T15:24:29;11.30;39.60
80296;DHT22;74188;42.148;24.762;2023-11-19T15:26:55;11.20;39.90
80296;DHT22;74188;42.148;24.762;2023-11-19T15:29:22;11.10;40.20
80296;DHT22;74188;42.148;24.762;2023-11-19T15:31:48;11.10;40.30
80296;DHT22;74188;42.148;24.762;2023-11-19T15:34:14;11.00;40.40
80296;DHT22;74188;42.148;24.762;2023-11-19T15:36:40;11.00;40.50
80296;DHT22;74188;42.148;24.762;2023-11-19T15:39:05;10.90;40.70
80296;DHT22;74188;42.148;24.762;2023-11-19T15:41:31;10.80;40.90